sensor_id;sensor_type;location;lat;lon;timestamp;P1;durP1;ratioP1;P2;durP2;ratioP2
34030;SDS011;20319;28.466;-16.274;2022-08-19T00:01:46;12.07;;;3.33;;
34030;SDS011;20319;28.466;-16.274;2022-08-19T00:04:14;10.55;;;3.10;;
34030;SDS011;20319;28.466;-16.274;2022-08-19T00:06:42;8.25;;;2.72;;
34030;SDS011;20319;28.466;-16.274;2022-08-19T00:09:10;7.45;;;2.30;;
34030;SDS011;20319;28.466;-16.274;2022-08-19T00:11:37;8.82;;;2.78;;
34030;SDS011;20319;28.466;-16.274;2022-08-19T00:14:04;9.75;;;2.88;;
34030;SDS011;20319;28.466;-16.274;2022-08-19T00:16:31;8.88;;;2.70;;
34030;SDS011;20319;28.466;-16.274;2022-08-19T00:18:58;10.63;;;2.90;;
34030;SDS011;20319;28.466;-16.274;2022-08-19T00:21:24;11.80;;;2.80;;
34030;SDS011;20319;28.466;-16.274;2022-08-19T00:23:51;9.95;;;2.58;;
34030;SDS011;20319;28.466;-16.274;2022-08-19T00:26:18;8.40;;;2.30;;
34030;SDS011;20319;28.466;-16.274;2022-08-19T00:28:44;12.27;;;2.80;;
34030;SDS011;20319;28.466;-16.274;2022-08-19T00:31:09;9.13;;;2.92;;
34030;SDS011;20319;28.466;-16.274;2022-08-19T00:33:35;10.13;;;2.65;;
34030;SDS011;20319;28.466;-16.274;2022-08-19T00:36:02;8.40;;;2.13;;
34030;SDS011;20319;28.466;-16.274;2022-08-19T00:38:31;8.80;;;2.60;;
34030;SDS011;20319;28.466;-16.274;2022-08-19T00:40:57;14.43;;;2.95;;
34030;SDS011;20319;28.466;-16.274;2022-08-19T00:43:25;9.07;;;2.85;;
34030;SDS011;20319;28.466;-16.274;2022-08-19T00:45:52;11.35;;;2.67;;
34030;SDS011;20319;28.466;-16.274;2022-08-19T00:48:18;6.78;;;2.13;;
34030;SDS011;20319;28.466;-16.274;2022-08-19T00:50:45;9.25;;;2.50;;
34030;SDS011;20319;28.466;-16.274;2022-08-19T00:53:14;7.72;;;2.38;;
34030;SDS011;20319;28.466;-16.274;2022-08-19T00:55:47;9.35;;;2.72;;
34030;SDS011;20319;28.466;-16.274;2022-08-19T00:58:15;9.65;;;2.85;;
34030;SDS011;20319;28.466;-16.274;2022-08-19T01:00:44;10.98;;;3.05;;
34030;SDS011;20319;28.466;-16.274;2022-08-19T01:03:11;7.97;;;2.72;;
34030;SDS011;20319;28.466;-16.274;2022-08-19T01:05:39;13.13;;;2.72;;
34030;SDS011;20319;28.466;-16.274;2022-08-19T01:08:07;9.00;;;2.42;;
34030;SDS011;20319;28.466;-16.274;2022-08-19T01:10:35;8.23;;;2.38;;
34030;SDS011;20319;28.466;-16.274;2022-08-19T01:13:05;7.65;;;2.53;;
34030;SDS011;20319;28.466;-16.274;2022-08-19T01:15:33;8.50;;;2.70;;
34030;SDS011;20319;28.466;-16.274;2022-08-19T01:18:07;8.98;;;2.60;;
34030;SDS011;20319;28.466;-16.274;2022-08-19T01:20:36;9.37;;;2.43;;
34030;SDS011;20319;28.466;-16.274;2022-08-19T01:23:02;8.55;;;2.70;;
34030;SDS011;20319;28.466;-16.274;2022-08-19T01:25:36;12.20;;;2.85;;
34030;SDS011;20319;28.466;-16.274;2022-08-19T01:28:06;7.63;;;2.47;;
34030;SDS011;20319;28.466;-16.274;2022-08-19T01:30:33;10.13;;;2.47;;
34030;SDS011;20319;28.466;-16.274;2022-08-19T01:33:00;13.73;;;2.90;;
34030;SDS011;20319;28.466;-16.274;2022-08-19T01:35:27;8.40;;;2.25;;
34030;SDS011;20319;28.466;-16.274;2022-08-19T01:37:59;9.27;;;2.60;;
34030;SDS011;20319;28.466;-16.274;2022-08-19T01:40:28;10.63;;;2.53;;
34030;SDS011;20319;28.466;-16.274;2022-08-19T01:42:55;11.85;;;3.08;;
34030;SDS011;20319;28.466;-16.274;2022-08-19T01:45:22;6.32;;;2.30;;
34030;SDS011;20319;28.466;-16.274;2022-08-19T01:47:51;8.43;;;3.13;;
34030;SDS011;20319;28.466;-16.274;2022-08-19T01:50:18;8.23;;;2.50;;
34030;SDS011;20319;28.466;-16.274;2022-08-19T01:52:44;8.73;;;2.92;;
34030;SDS011;20319;28.466;-16.274;2022-08-19T01:55:17;12.70;;;3.25;;
34030;SDS011;20319;28.466;-16.274;2022-08-19T01:57:47;9.95;;;3.22;;
34030;SDS011;20319;28.466;-16.274;2022-08-19T02:00:22;10.02;;;3.47;;
34030;SDS011;20319;28.466;-16.274;2022-08-19T02:02:51;13.13;;;3.42;;
34030;SDS011;20319;28.466;-16.274;2022-08-19T02:05:17;10.63;;;3.85;;
34030;SDS011;20319;28.466;-16.274;2022-08-19T02:07:43;10.32;;;2.92;;
34030;SDS011;20319;28.466;-16.274;2022-08-19T02:10:14;10.10;;;3.50;;
34030;SDS011;20319;28.466;-16.274;2022-08-19T02:12:42;11.55;;;3.25;;
34030;SDS011;20319;28.466;-16.274;2022-08-19T02:15:08;9.55;;;3.38;;
34030;SDS011;20319;28.466;-16.274;2022-08-19T02:17:35;12.63;;;3.58;;
34030;SDS011;20319;28.466;-16.274;2022-08-19T02:20:00;6.80;;;3.15;;
34030;SDS011;20319;28.466;-16.274;2022-08-19T02:22:26;10.05;;;4.25;;
34030;SDS011;20319;28.466;-16.274;2022-08-19T02:24:52;11.05;;;3.65;;
34030;SDS011;20319;28.466;-16.274;2022-08-19T02:27:19;12.02;;;3.67;;
34030;SDS011;20319;28.466;-16.274;2022-08-19T02:29:45;9.68;;;3.45;;
34030;SDS011;20319;28.466;-16.274;2022-08-19T02:32:19;12.32;;;3.90;;
34030;SDS011;20319;28.466;-16.274;2022-08-19T02:34:45;11.82;;;4.32;;
34030;SDS011;20319;28.466;-16.274;2022-08-19T02:37:13;13.63;;;3.60;;
34030;SDS011;20319;28.466;-16.274;2022-08-19T02:39:58;11.88;;;3.78;;
34030;SDS011;20319;28.466;-16.274;2022-08-19T02:42:24;10.25;;;3.60;;
34030;SDS011;20319;28.466;-16.274;2022-08-19T02:44:50;9.35;;;3.47;;
34030;SDS011;20319;28.466;-16.274;2022-08-19T02:47:17;11.18;;;3.30;;
34030;SDS011;20319;28.466;-16.274;2022-08-19T02:49:44;8.85;;;3.28;;
34030;SDS011;20319;28.466;-16.274;2022-08-19T02:52:10;12.75;;;3.67;;
34030;SDS011;20319;28.466;-16.274;2022-08-19T02:54:36;11.45;;;3.17;;
34030;SDS011;20319;28.466;-16.274;2022-08-19T02:57:04;11.25;;;3.17;;
34030;SDS011;20319;28.466;-16.274;2022-08-19T02:59:30;7.75;;;2.50;;
34030;SDS011;20319;28.466;-16.274;2022-08-19T03:01:57;8.20;;;2.50;;
34030;SDS011;20319;28.466;-16.274;2022-08-19T03:04:23;13.98;;;4.47;;
34030;SDS011;20319;28.466;-16.274;2022-08-19T03:06:49;13.15;;;4.05;;
34030;SDS011;20319;28.466;-16.274;2022-08-19T03:09:16;11.60;;;4.00;;
34030;SDS011;20319;28.466;-16.274;2022-08-19T03:11:43;13.90;;;4.38;;
34030;SDS011;20319;28.466;-16.274;2022-08-19T03:14:09;12.38;;;4.40;;
34030;SDS011;20319;28.466;-16.274;2022-08-19T03:16:42;10.80;;;3.83;;
34030;SDS011;20319;28.466;-16.274;2022-08-19T03:19:16;10.85;;;5.03;;
34030;SDS011;20319;28.466;-16.274;2022-08-19T03:21:44;13.85;;;7.32;;
34030;SDS011;20319;28.466;-16.274;2022-08-19T03:24:11;14.63;;;6.32;;
34030;SDS011;20319;28.466;-16.274;2022-08-19T03:26:44;14.57;;;5.05;;
34030;SDS011;20319;28.466;-16.274;2022-08-19T03:29:12;11.43;;;6.00;;
34030;SDS011;20319;28.466;-16.274;2022-08-19T03:31:38;9.45;;;3.72;;
34030;SDS011;20319;28.466;-16.274;2022-08-19T03:34:06;12.73;;;4.97;;
34030;SDS011;20319;28.466;-16.274;2022-08-19T03:36:32;11.15;;;5.13;;
34030;SDS011;20319;28.466;-16.274;2022-08-19T03:38:59;10.75;;;4.05;;
34030;SDS011;20319;28.466;-16.274;2022-08-19T03:41:29;11.27;;;4.97;;
34030;SDS011;20319;28.466;-16.274;2022-08-19T03:43:57;10.13;;;4.10;;
34030;SDS011;20319;28.466;-16.274;2022-08-19T03:46:25;11.85;;;4.85;;
34030;SDS011;20319;28.466;-16.274;2022-08-19T03:48:54;13.02;;;4.88;;
34030;SDS011;20319;28.466;-16.274;2022-08-19T03:51:26;12.75;;;5.60;;
34030;SDS011;20319;28.466;-16.274;2022-08-19T03:53:54;13.15;;;5.47;;
34030;SDS011;20319;28.466;-16.274;2022-08-19T03:56:20;10.50;;;5.25;;
34030;SDS011;20319;28.466;-16.274;2022-08-19T03:58:47;10.27;;;4.57;;
34030;SDS011;20319;28.466;-16.274;2022-08-19T04:01:14;12.18;;;4.38;;
34030;SDS011;20319;28.466;-16.274;2022-08-19T04:03:42;13.98;;;4.60;;
34030;SDS011;20319;28.466;-16.274;2022-08-19T04:08:39;14.00;;;4.78;;
34030;SDS011;20319;28.466;-16.274;2022-08-19T04:11:10;12.88;;;4.10;;
34030;SDS011;20319;28.466;-16.274;2022-08-19T04:13:41;10.00;;;4.00;;
34030;SDS011;20319;28.466;-16.274;2022-08-19T04:16:09;11.32;;;4.57;;
34030;SDS011;20319;28.466;-16.274;2022-08-19T04:18:35;15.90;;;4.43;;
34030;SDS011;20319;28.466;-16.274;2022-08-19T04:21:02;12.40;;;4.78;;
34030;SDS011;20319;28.466;-16.274;2022-08-19T04:23:29;9.32;;;3.78;;
34030;SDS011;20319;28.466;-16.274;2022-08-19T04:25:55;11.45;;;4.75;;
34030;SDS011;20319;28.466;-16.274;2022-08-19T04:28:21;13.88;;;4.65;;
34030;SDS011;20319;28.466;-16.274;2022-08-19T04:30:49;11.77;;;4.05;;
34030;SDS011;20319;28.466;-16.274;2022-08-19T04:33:17;12.07;;;5.00;;
34030;SDS011;20319;28.466;-16.274;2022-08-19T04:35:47;10.13;;;4.68;;
34030;SDS011;20319;28.466;-16.274;2022-08-19T04:38:15;14.10;;;4.95;;
34030;SDS011;20319;28.466;-16.274;2022-08-19T04:40:45;13.80;;;4.63;;
34030;SDS011;20319;28.466;-16.274;2022-08-19T04:43:32;13.88;;;4.65;;
34030;SDS011;20319;28.466;-16.274;2022-08-19T04:45:58;10.35;;;4.50;;
34030;SDS011;20319;28.466;-16.274;2022-08-19T04:48:30;15.50;;;5.22;;
34030;SDS011;20319;28.466;-16.274;2022-08-19T04:50:57;12.75;;;5.25;;
34030;SDS011;20319;28.466;-16.274;2022-08-19T04:53:26;11.85;;;4.60;;
34030;SDS011;20319;28.466;-16.274;2022-08-19T04:55:54;15.85;;;4.93;;
34030;SDS011;20319;28.466;-16.274;2022-08-19T04:58:21;10.85;;;4.43;;
34030;SDS011;20319;28.466;-16.274;2022-08-19T05:00:48;12.93;;;4.45;;
34030;SDS011;20319;28.466;-16.274;2022-08-19T05:03:13;8.60;;;4.18;;
34030;SDS011;20319;28.466;-16.274;2022-08-19T05:05:42;8.95;;;4.40;;
34030;SDS011;20319;28.466;-16.274;2022-08-19T05:08:10;11.80;;;5.03;;
34030;SDS011;20319;28.466;-16.274;2022-08-19T05:10:37;13.80;;;4.93;;
34030;SDS011;20319;28.466;-16.274;2022-08-19T05:13:04;13.43;;;4.35;;
34030;SDS011;20319;28.466;-16.274;2022-08-19T05:15:30;10.55;;;5.13;;
34030;SDS011;20319;28.466;-16.274;2022-08-19T05:17:56;12.10;;;5.10;;
34030;SDS011;20319;28.466;-16.274;2022-08-19T05:20:40;17.52;;;4.75;;
34030;SDS011;20319;28.466;-16.274;2022-08-19T05:23:24;13.57;;;4.78;;
34030;SDS011;20319;28.466;-16.274;2022-08-19T05:25:50;9.05;;;4.00;;
34030;SDS011;20319;28.466;-16.274;2022-08-19T05:28:16;13.27;;;4.88;;
34030;SDS011;20319;28.466;-16.274;2022-08-19T05:30:43;12.18;;;4.45;;
34030;SDS011;20319;28.466;-16.274;2022-08-19T05:33:10;13.48;;;4.85;;
34030;SDS011;20319;28.466;-16.274;2022-08-19T05:35:37;11.27;;;4.60;;
34030;SDS011;20319;28.466;-16.274;2022-08-19T05:38:05;11.65;;;4.80;;
34030;SDS011;20319;28.466;-16.274;2022-08-19T05:40:34;12.32;;;4.82;;
34030;SDS011;20319;28.466;-16.274;2022-08-19T05:43:01;12.63;;;4.60;;
34030;SDS011;20319;28.466;-16.274;2022-08-19T05:45:28;11.05;;;4.72;;
34030;SDS011;20319;28.466;-16.274;2022-08-19T05:47:53;11.20;;;4.53;;
34030;SDS011;20319;28.466;-16.274;2022-08-19T05:50:19;13.27;;;5.28;;
34030;SDS011;20319;28.466;-16.274;2022-08-19T05:52:46;13.77;;;4.57;;
34030;SDS011;20319;28.466;-16.274;2022-08-19T05:55:12;13.35;;;4.50;;
34030;SDS011;20319;28.466;-16.274;2022-08-19T05:57:38;9.02;;;4.13;;
34030;SDS011;20319;28.466;-16.274;2022-08-19T06:00:05;11.40;;;4.40;;
34030;SDS011;20319;28.466;-16.274;2022-08-19T06:02:36;12.50;;;4.55;;
34030;SDS011;20319;28.466;-16.274;2022-08-19T06:05:03;10.93;;;4.88;;
34030;SDS011;20319;28.466;-16.274;2022-08-19T06:07:32;10.88;;;4.35;;
34030;SDS011;20319;28.466;-16.274;2022-08-19T06:09:58;15.15;;;5.10;;
34030;SDS011;20319;28.466;-16.274;2022-08-19T06:12:23;10.98;;;4.40;;
34030;SDS011;20319;28.466;-16.274;2022-08-19T06:14:55;13.65;;;4.75;;
34030;SDS011;20319;28.466;-16.274;2022-08-19T06:17:21;10.70;;;4.03;;
34030;SDS011;20319;28.466;-16.274;2022-08-19T06:19:50;12.05;;;4.57;;
34030;SDS011;20319;28.466;-16.274;2022-08-19T06:22:15;10.43;;;4.30;;
34030;SDS011;20319;28.466;-16.274;2022-08-19T06:24:41;10.48;;;4.40;;
34030;SDS011;20319;28.466;-16.274;2022-08-19T06:27:07;10.13;;;3.95;;
34030;SDS011;20319;28.466;-16.274;2022-08-19T06:29:33;13.18;;;4.68;;
34030;SDS011;20319;28.466;-16.274;2022-08-19T06:32:01;12.88;;;4.20;;
34030;SDS011;20319;28.466;-16.274;2022-08-19T06:34:28;9.35;;;4.13;;
34030;SDS011;20319;28.466;-16.274;2022-08-19T06:36:56;13.27;;;4.65;;
34030;SDS011;20319;28.466;-16.274;2022-08-19T06:39:26;10.57;;;4.65;;
34030;SDS011;20319;28.466;-16.274;2022-08-19T06:41:57;14.73;;;4.35;;
34030;SDS011;20319;28.466;-16.274;2022-08-19T06:44:26;10.48;;;4.43;;
34030;SDS011;20319;28.466;-16.274;2022-08-19T06:46:53;10.40;;;4.85;;
34030;SDS011;20319;28.466;-16.274;2022-08-19T06:49:20;16.20;;;4.78;;
34030;SDS011;20319;28.466;-16.274;2022-08-19T06:51:47;9.68;;;4.65;;
34030;SDS011;20319;28.466;-16.274;2022-08-19T06:54:14;13.32;;;4.57;;
34030;SDS011;20319;28.466;-16.274;2022-08-19T06:56:41;12.38;;;4.55;;
34030;SDS011;20319;28.466;-16.274;2022-08-19T06:59:11;12.45;;;4.22;;
34030;SDS011;20319;28.466;-16.274;2022-08-19T07:01:41;11.57;;;4.78;;
34030;SDS011;20319;28.466;-16.274;2022-08-19T07:04:11;11.98;;;4.55;;
34030;SDS011;20319;28.466;-16.274;2022-08-19T07:06:37;10.32;;;4.65;;
34030;SDS011;20319;28.466;-16.274;2022-08-19T07:09:07;14.10;;;4.70;;
34030;SDS011;20319;28.466;-16.274;2022-08-19T07:11:36;9.70;;;4.23;;
34030;SDS011;20319;28.466;-16.274;2022-08-19T07:14:02;10.77;;;4.93;;
34030;SDS011;20319;28.466;-16.274;2022-08-19T07:16:28;9.52;;;4.13;;
34030;SDS011;20319;28.466;-16.274;2022-08-19T07:18:54;12.65;;;4.38;;
34030;SDS011;20319;28.466;-16.274;2022-08-19T07:21:25;10.90;;;4.88;;
34030;SDS011;20319;28.466;-16.274;2022-08-19T07:26:26;10.25;;;4.40;;
34030;SDS011;20319;28.466;-16.274;2022-08-19T07:28:54;11.23;;;4.53;;
34030;SDS011;20319;28.466;-16.274;2022-08-19T07:31:22;14.75;;;4.85;;
34030;SDS011;20319;28.466;-16.274;2022-08-19T07:33:50;10.52;;;4.20;;
34030;SDS011;20319;28.466;-16.274;2022-08-19T07:36:18;10.32;;;4.07;;
34030;SDS011;20319;28.466;-16.274;2022-08-19T07:38:48;11.65;;;3.72;;
34030;SDS011;20319;28.466;-16.274;2022-08-19T07:41:17;11.50;;;4.70;;
34030;SDS011;20319;28.466;-16.274;2022-08-19T07:43:52;14.27;;;5.38;;
34030;SDS011;20319;28.466;-16.274;2022-08-19T07:46:18;11.90;;;4.05;;
34030;SDS011;20319;28.466;-16.274;2022-08-19T07:48:45;13.55;;;4.22;;
34030;SDS011;20319;28.466;-16.274;2022-08-19T07:51:13;13.15;;;4.15;;
34030;SDS011;20319;28.466;-16.274;2022-08-19T07:53:40;13.98;;;4.75;;
34030;SDS011;20319;28.466;-16.274;2022-08-19T07:56:06;9.98;;;4.30;;
34030;SDS011;20319;28.466;-16.274;2022-08-19T07:58:33;8.50;;;4.78;;
34030;SDS011;20319;28.466;-16.274;2022-08-19T08:01:03;12.10;;;4.90;;
34030;SDS011;20319;28.466;-16.274;2022-08-19T08:03:29;16.13;;;4.95;;
34030;SDS011;20319;28.466;-16.274;2022-08-19T08:06:22;14.70;;;5.20;;
34030;SDS011;20319;28.466;-16.274;2022-08-19T08:09:07;13.32;;;4.10;;
34030;SDS011;20319;28.466;-16.274;2022-08-19T08:11:58;13.25;;;4.88;;
34030;SDS011;20319;28.466;-16.274;2022-08-19T08:14:32;11.63;;;4.40;;
34030;SDS011;20319;28.466;-16.274;2022-08-19T08:17:02;10.55;;;4.78;;
34030;SDS011;20319;28.466;-16.274;2022-08-19T08:19:28;10.77;;;4.80;;
34030;SDS011;20319;28.466;-16.274;2022-08-19T08:21:55;9.60;;;4.30;;
34030;SDS011;20319;28.466;-16.274;2022-08-19T08:24:22;11.98;;;4.68;;
34030;SDS011;20319;28.466;-16.274;2022-08-19T08:26:48;11.02;;;4.40;;
34030;SDS011;20319;28.466;-16.274;2022-08-19T08:29:14;8.77;;;3.65;;
34030;SDS011;20319;28.466;-16.274;2022-08-19T08:31:41;11.82;;;4.38;;
34030;SDS011;20319;28.466;-16.274;2022-08-19T08:34:08;9.63;;;3.55;;
34030;SDS011;20319;28.466;-16.274;2022-08-19T08:36:39;12.95;;;4.40;;
34030;SDS011;20319;28.466;-16.274;2022-08-19T08:39:10;12.27;;;4.18;;
34030;SDS011;20319;28.466;-16.274;2022-08-19T08:44:44;10.77;;;3.60;;
34030;SDS011;20319;28.466;-16.274;2022-08-19T08:47:22;9.32;;;3.58;;
34030;SDS011;20319;28.466;-16.274;2022-08-19T08:50:04;7.68;;;3.95;;
34030;SDS011;20319;28.466;-16.274;2022-08-19T08:52:44;8.80;;;3.72;;
34030;SDS011;20319;28.466;-16.274;2022-08-19T08:55:17;10.17;;;5.20;;
34030;SDS011;20319;28.466;-16.274;2022-08-19T09:00:33;12.60;;;4.78;;
34030;SDS011;20319;28.466;-16.274;2022-08-19T09:03:02;9.55;;;4.20;;
34030;SDS011;20319;28.466;-16.274;2022-08-19T09:19:14;13.05;;;4.93;;
34030;SDS011;20319;28.466;-16.274;2022-08-19T09:21:42;10.10;;;4.22;;
34030;SDS011;20319;28.466;-16.274;2022-08-19T09:24:08;13.88;;;4.43;;
34030;SDS011;20319;28.466;-16.274;2022-08-19T09:26:34;9.20;;;3.88;;
34030;SDS011;20319;28.466;-16.274;2022-08-19T09:28:59;11.95;;;4.15;;
34030;SDS011;20319;28.466;-16.274;2022-08-19T09:31:27;12.30;;;8.68;;
34030;SDS011;20319;28.466;-16.274;2022-08-19T09:33:55;14.57;;;8.13;;
34030;SDS011;20319;28.466;-16.274;2022-08-19T09:36:24;8.77;;;4.38;;
34030;SDS011;20319;28.466;-16.274;2022-08-19T09:38:52;10.48;;;3.42;;
34030;SDS011;20319;28.466;-16.274;2022-08-19T09:41:19;11.75;;;3.67;;
34030;SDS011;20319;28.466;-16.274;2022-08-19T09:43:47;11.35;;;4.47;;
34030;SDS011;20319;28.466;-16.274;2022-08-19T09:46:17;12.93;;;4.35;;
34030;SDS011;20319;28.466;-16.274;2022-08-19T09:48:46;9.60;;;3.28;;
34030;SDS011;20319;28.466;-16.274;2022-08-19T09:51:15;9.43;;;3.58;;
34030;SDS011;20319;28.466;-16.274;2022-08-19T09:53:46;12.45;;;4.03;;
34030;SDS011;20319;28.466;-16.274;2022-08-19T09:56:15;9.32;;;3.85;;
34030;SDS011;20319;28.466;-16.274;2022-08-19T09:58:41;13.15;;;3.47;;
34030;SDS011;20319;28.466;-16.274;2022-08-19T10:01:07;8.10;;;3.20;;
34030;SDS011;20319;28.466;-16.274;2022-08-19T10:03:35;9.65;;;3.65;;
34030;SDS011;20319;28.466;-16.274;2022-08-19T10:06:02;11.45;;;3.60;;
34030;SDS011;20319;28.466;-16.274;2022-08-19T10:08:31;10.70;;;4.15;;
34030;SDS011;20319;28.466;-16.274;2022-08-19T10:10:59;12.55;;;4.47;;
34030;SDS011;20319;28.466;-16.274;2022-08-19T10:13:27;10.50;;;3.45;;
34030;SDS011;20319;28.466;-16.274;2022-08-19T10:15:55;12.23;;;4.30;;
34030;SDS011;20319;28.466;-16.274;2022-08-19T10:18:23;11.35;;;4.00;;
34030;SDS011;20319;28.466;-16.274;2022-08-19T10:20:50;11.98;;;3.60;;
34030;SDS011;20319;28.466;-16.274;2022-08-19T10:23:17;9.77;;;3.40;;
34030;SDS011;20319;28.466;-16.274;2022-08-19T10:25:45;9.95;;;3.92;;
34030;SDS011;20319;28.466;-16.274;2022-08-19T10:28:11;11.40;;;3.67;;
34030;SDS011;20319;28.466;-16.274;2022-08-19T10:30:39;9.52;;;3.60;;
34030;SDS011;20319;28.466;-16.274;2022-08-19T10:33:06;9.85;;;3.47;;
34030;SDS011;20319;28.466;-16.274;2022-08-19T10:35:31;11.13;;;3.72;;
34030;SDS011;20319;28.466;-16.274;2022-08-19T10:37:58;11.32;;;3.95;;
34030;SDS011;20319;28.466;-16.274;2022-08-19T10:40:25;10.48;;;3.92;;
34030;SDS011;20319;28.466;-16.274;2022-08-19T10:42:52;10.77;;;3.97;;
34030;SDS011;20319;28.466;-16.274;2022-08-19T10:45:20;11.98;;;4.07;;
34030;SDS011;20319;28.466;-16.274;2022-08-19T10:47:48;10.02;;;3.40;;
34030;SDS011;20319;28.466;-16.274;2022-08-19T10:50:14;9.15;;;3.90;;
34030;SDS011;20319;28.466;-16.274;2022-08-19T10:53:02;7.53;;;3.67;;
34030;SDS011;20319;28.466;-16.274;2022-08-19T10:55:29;9.88;;;3.92;;
34030;SDS011;20319;28.466;-16.274;2022-08-19T10:58:14;7.50;;;3.45;;
34030;SDS011;20319;28.466;-16.274;2022-08-19T11:00:42;9.77;;;3.88;;
34030;SDS011;20319;28.466;-16.274;2022-08-19T11:03:08;12.70;;;3.80;;
34030;SDS011;20319;28.466;-16.274;2022-08-19T11:05:34;9.90;;;3.58;;
34030;SDS011;20319;28.466;-16.274;2022-08-19T11:08:02;8.80;;;3.58;;
34030;SDS011;20319;28.466;-16.274;2022-08-19T11:10:28;12.13;;;3.97;;
34030;SDS011;20319;28.466;-16.274;2022-08-19T11:12:53;12.70;;;3.85;;
34030;SDS011;20319;28.466;-16.274;2022-08-19T11:15:20;9.85;;;3.95;;
34030;SDS011;20319;28.466;-16.274;2022-08-19T11:17:46;9.27;;;3.60;;
34030;SDS011;20319;28.466;-16.274;2022-08-19T11:20:13;11.05;;;4.45;;
34030;SDS011;20319;28.466;-16.274;2022-08-19T11:22:40;8.25;;;3.50;;
34030;SDS011;20319;28.466;-16.274;2022-08-19T11:25:07;9.63;;;4.13;;
34030;SDS011;20319;28.466;-16.274;2022-08-19T11:27:37;7.85;;;3.88;;
34030;SDS011;20319;28.466;-16.274;2022-08-19T11:30:10;9.50;;;3.35;;
34030;SDS011;20319;28.466;-16.274;2022-08-19T11:32:37;9.45;;;3.28;;
34030;SDS011;20319;28.466;-16.274;2022-08-19T11:35:03;10.10;;;3.65;;
34030;SDS011;20319;28.466;-16.274;2022-08-19T11:37:29;11.40;;;3.78;;
34030;SDS011;20319;28.466;-16.274;2022-08-19T11:39:54;9.57;;;3.20;;
34030;SDS011;20319;28.466;-16.274;2022-08-19T11:42:20;9.27;;;3.55;;
34030;SDS011;20319;28.466;-16.274;2022-08-19T11:45:04;8.88;;;3.47;;
34030;SDS011;20319;28.466;-16.274;2022-08-19T11:47:30;8.35;;;3.63;;
34030;SDS011;20319;28.466;-16.274;2022-08-19T11:49:56;6.00;;;3.50;;
34030;SDS011;20319;28.466;-16.274;2022-08-19T11:52:22;9.80;;;3.85;;
34030;SDS011;20319;28.466;-16.274;2022-08-19T11:54:47;10.95;;;3.47;;
34030;SDS011;20319;28.466;-16.274;2022-08-19T11:57:13;9.40;;;3.65;;
34030;SDS011;20319;28.466;-16.274;2022-08-19T11:59:41;7.22;;;3.38;;
34030;SDS011;20319;28.466;-16.274;2022-08-19T12:02:12;7.32;;;3.30;;
34030;SDS011;20319;28.466;-16.274;2022-08-19T12:04:40;9.25;;;3.70;;
34030;SDS011;20319;28.466;-16.274;2022-08-19T12:07:06;7.22;;;3.10;;
34030;SDS011;20319;28.466;-16.274;2022-08-19T12:09:31;8.82;;;3.40;;
34030;SDS011;20319;28.466;-16.274;2022-08-19T12:11:59;8.32;;;3.35;;
34030;SDS011;20319;28.466;-16.274;2022-08-19T12:14:26;8.60;;;3.42;;
34030;SDS011;20319;28.466;-16.274;2022-08-19T12:16:55;7.95;;;3.22;;
34030;SDS011;20319;28.466;-16.274;2022-08-19T12:19:20;7.50;;;3.35;;
34030;SDS011;20319;28.466;-16.274;2022-08-19T12:21:46;8.02;;;3.45;;
34030;SDS011;20319;28.466;-16.274;2022-08-19T12:24:12;10.05;;;3.22;;
34030;SDS011;20319;28.466;-16.274;2022-08-19T12:26:38;6.50;;;3.90;;
34030;SDS011;20319;28.466;-16.274;2022-08-19T12:29:04;7.40;;;3.65;;
34030;SDS011;20319;28.466;-16.274;2022-08-19T12:31:30;9.77;;;3.90;;
34030;SDS011;20319;28.466;-16.274;2022-08-19T12:33:56;8.77;;;3.70;;
34030;SDS011;20319;28.466;-16.274;2022-08-19T12:36:22;10.90;;;3.70;;
34030;SDS011;20319;28.466;-16.274;2022-08-19T12:38:49;9.38;;;3.92;;
34030;SDS011;20319;28.466;-16.274;2022-08-19T12:41:16;11.40;;;3.33;;
34030;SDS011;20319;28.466;-16.274;2022-08-19T12:43:43;9.05;;;3.63;;
34030;SDS011;20319;28.466;-16.274;2022-08-19T12:46:10;9.85;;;3.25;;
34030;SDS011;20319;28.466;-16.274;2022-08-19T12:48:36;11.60;;;3.92;;
34030;SDS011;20319;28.466;-16.274;2022-08-19T12:51:08;8.50;;;3.28;;
34030;SDS011;20319;28.466;-16.274;2022-08-19T12:53:36;7.80;;;3.15;;
34030;SDS011;20319;28.466;-16.274;2022-08-19T12:56:02;11.20;;;3.88;;
34030;SDS011;20319;28.466;-16.274;2022-08-19T12:58:28;8.68;;;3.33;;
34030;SDS011;20319;28.466;-16.274;2022-08-19T13:00:54;10.05;;;3.60;;
34030;SDS011;20319;28.466;-16.274;2022-08-19T13:03:20;9.38;;;3.80;;
34030;SDS011;20319;28.466;-16.274;2022-08-19T13:05:47;6.72;;;3.40;;
34030;SDS011;20319;28.466;-16.274;2022-08-19T13:08:15;10.15;;;3.55;;
34030;SDS011;20319;28.466;-16.274;2022-08-19T13:10:42;11.35;;;3.75;;
34030;SDS011;20319;28.466;-16.274;2022-08-19T13:13:08;13.60;;;4.30;;
34030;SDS011;20319;28.466;-16.274;2022-08-19T13:15:36;7.97;;;3.40;;
34030;SDS011;20319;28.466;-16.274;2022-08-19T13:18:05;12.60;;;3.70;;
34030;SDS011;20319;28.466;-16.274;2022-08-19T13:20:32;10.15;;;4.35;;
34030;SDS011;20319;28.466;-16.274;2022-08-19T13:22:57;9.05;;;3.53;;
34030;SDS011;20319;28.466;-16.274;2022-08-19T13:25:23;11.38;;;4.00;;
34030;SDS011;20319;28.466;-16.274;2022-08-19T13:27:50;9.70;;;3.88;;
34030;SDS011;20319;28.466;-16.274;2022-08-19T13:30:16;10.73;;;3.78;;
34030;SDS011;20319;28.466;-16.274;2022-08-19T13:33:02;7.80;;;3.20;;
34030;SDS011;20319;28.466;-16.274;2022-08-19T13:35:49;7.53;;;3.45;;
34030;SDS011;20319;28.466;-16.274;2022-08-19T13:38:21;12.05;;;4.40;;
34030;SDS011;20319;28.466;-16.274;2022-08-19T13:40:48;13.88;;;4.18;;
34030;SDS011;20319;28.466;-16.274;2022-08-19T13:43:16;9.63;;;3.45;;
34030;SDS011;20319;28.466;-16.274;2022-08-19T13:45:55;9.98;;;3.30;;
34030;SDS011;20319;28.466;-16.274;2022-08-19T13:48:21;10.23;;;3.88;;
34030;SDS011;20319;28.466;-16.274;2022-08-19T13:50:47;8.98;;;3.28;;
34030;SDS011;20319;28.466;-16.274;2022-08-19T13:53:13;9.27;;;3.90;;
34030;SDS011;20319;28.466;-16.274;2022-08-19T13:55:40;10.50;;;3.65;;
34030;SDS011;20319;28.466;-16.274;2022-08-19T13:58:07;7.07;;;3.10;;
34030;SDS011;20319;28.466;-16.274;2022-08-19T14:00:37;8.23;;;3.70;;
34030;SDS011;20319;28.466;-16.274;2022-08-19T14:03:05;8.13;;;3.60;;
34030;SDS011;20319;28.466;-16.274;2022-08-19T14:05:31;7.80;;;3.55;;
34030;SDS011;20319;28.466;-16.274;2022-08-19T14:08:04;7.47;;;3.05;;
34030;SDS011;20319;28.466;-16.274;2022-08-19T14:10:29;8.13;;;3.33;;
34030;SDS011;20319;28.466;-16.274;2022-08-19T14:12:59;6.82;;;3.13;;
34030;SDS011;20319;28.466;-16.274;2022-08-19T14:15:27;8.40;;;3.50;;
34030;SDS011;20319;28.466;-16.274;2022-08-19T14:17:53;9.02;;;2.85;;
34030;SDS011;20319;28.466;-16.274;2022-08-19T14:20:19;7.25;;;3.10;;
34030;SDS011;20319;28.466;-16.274;2022-08-19T14:22:46;7.78;;;3.22;;
34030;SDS011;20319;28.466;-16.274;2022-08-19T14:25:14;7.90;;;3.00;;
34030;SDS011;20319;28.466;-16.274;2022-08-19T14:27:42;13.10;;;3.67;;
34030;SDS011;20319;28.466;-16.274;2022-08-19T14:30:18;7.80;;;3.25;;
34030;SDS011;20319;28.466;-16.274;2022-08-19T14:32:52;6.65;;;3.05;;
34030;SDS011;20319;28.466;-16.274;2022-08-19T14:35:19;11.75;;;3.78;;
34030;SDS011;20319;28.466;-16.274;2022-08-19T14:37:46;8.82;;;3.72;;
34030;SDS011;20319;28.466;-16.274;2022-08-19T14:40:16;9.63;;;4.00;;
34030;SDS011;20319;28.466;-16.274;2022-08-19T14:42:46;9.07;;;3.13;;
34030;SDS011;20319;28.466;-16.274;2022-08-19T14:45:12;8.52;;;3.45;;